CPX213 Details

Departure: Chicago/Rockford International Airport (KRFD) at 0630 UTC
Arrival: Theodore Francis Green State Airport (KPVD) at 0800 UTC
Route: QUOTE JOT J146 GIJ J554 JHW TRAAD HNK WIPOR3
Notes:


Current Weather Information
KRFD 230854Z 24009KT 10SM CLR 05/00 A2984 RMK AO2 SLP107 T00500000 51009
KPVD 230851Z AUTO 36003KT 1/2SM R05/2400V2600FT -RA FG VV002 14/14 A2974 RMK AO2 RAB36 SLP072 P0002 60004 T01440144 58018